Time;durP1;ratioP1;P1;durP2;ratioP2;P2;SDS_P1;SDS_P2;PMS_P1;PMS_P2;Temp;Humidity;BMP_temperature;BMP_pressure;BME280_temperature;BME280_humidity;BME280_pressure;Samples;Min_cycle;Max_cycle;Signal;HPM_P1;HPM_P2
2023/06/09 00:02:00;;;;;;;6.45;5.85;;;17.60;74.90;;;;;;918471;154;27491;-77
2023/06/09 00:04:29;;;;;;;6.72;5.67;;;17.60;75.50;;;;;;924342;152;27356;-77
2023/06/09 00:06:54;;;;;;;6.65;6.15;;;17.60;75.90;;;;;;919130;153;27436;-77
2023/06/09 00:09:20;;;;;;;6.25;5.72;;;17.50;76.10;;;;;;917890;154;27469;-78
2023/06/09 00:11:46;;;;;;;7.40;6.58;;;17.60;76.20;;;;;;918092;154;27307;-77
2023/06/09 00:14:13;;;;;;;6.42;5.83;;;17.60;76.40;;;;;;917137;154;27476;-77
2023/06/09 00:16:46;;;;;;;6.90;6.30;;;17.60;76.50;;;;;;918687;154;27453;-77
2023/06/09 00:19:09;;;;;;;6.33;5.83;;;17.50;76.40;;;;;;916969;154;27338;-78
2023/06/09 00:21:32;;;;;;;6.70;6.10;;;17.50;76.30;;;;;;917311;154;27336;-77
2023/06/09 00:23:59;;;;;;;7.37;6.55;;;17.50;76.30;;;;;;919361;154;27475;-77
2023/06/09 00:26:26;;;;;;;7.75;7.05;;;17.40;76.40;;;;;;921406;151;27464;-77
2023/06/09 00:28:52;;;;;;;7.37;6.77;;;17.40;76.60;;;;;;905371;155;27451;-77
2023/06/09 00:31:19;;;;;;;7.62;6.92;;;17.40;76.90;;;;;;918060;154;27446;-78
2023/06/09 00:33:45;;;;;;;7.00;6.40;;;17.30;76.90;;;;;;918656;154;27354;-77
2023/06/09 00:36:12;;;;;;;6.70;6.20;;;17.30;77.10;;;;;;915598;154;27392;-78
2023/06/09 00:38:38;;;;;;;8.10;6.97;;;17.20;77.10;;;;;;915700;154;27415;-77
2023/06/09 00:41:05;;;;;;;6.97;6.30;;;17.20;76.40;;;;;;915878;154;27340;-77
2023/06/09 00:43:32;;;;;;;6.87;6.25;;;17.10;77.50;;;;;;917141;154;27453;-77
2023/06/09 00:45:58;;;;;;;7.40;6.77;;;17.10;77.60;;;;;;923902;152;27337;-77
2023/06/09 00:48:25;;;;;;;7.05;6.40;;;17.00;77.90;;;;;;891171;155;27434;-77
2023/06/09 00:50:51;;;;;;;7.00;5.97;;;16.90;78.30;;;;;;892042;155;27482;-78
2023/06/09 00:53:18;;;;;;;7.42;6.72;;;16.90;78.70;;;;;;891144;155;27422;-77
2023/06/09 00:55:45;;;;;;;6.70;6.10;;;16.90;78.90;;;;;;890431;155;27453;-78
2023/06/09 00:58:11;;;;;;;7.00;6.40;;;16.80;79.10;;;;;;891234;155;27425;-77
2023/06/09 01:00:40;;;;;;;6.25;5.75;;;16.80;79.40;;;;;;891543;155;27385;-77
2023/06/09 01:03:04;;;;;;;6.80;6.13;;;16.80;79.60;;;;;;890888;155;27483;-77
2023/06/09 01:05:34;;;;;;;5.83;5.33;;;16.80;79.70;;;;;;892349;155;27346;-78
2023/06/09 01:08:07;;;;;;;6.57;6.07;;;16.70;80.00;;;;;;891470;155;27476;-77
2023/06/09 01:10:42;;;;;;;6.87;6.27;;;16.70;80.00;;;;;;895000;155;27509;-78
2023/06/09 01:13:17;;;;;;;7.35;6.62;;;16.70;80.20;;;;;;906161;156;27389;-77
2023/06/09 01:15:46;;;;;;;5.78;5.30;;;16.60;80.40;;;;;;914816;153;27345;-77
2023/06/09 01:18:13;;;;;;;7.00;6.40;;;16.60;80.50;;;;;;940489;150;27519;-77
2023/06/09 01:20:48;;;;;;;7.23;6.63;;;16.60;80.80;;;;;;921515;153;27455;-77
2023/06/09 01:23:20;;;;;;;6.30;5.80;;;16.60;81.10;;;;;;938201;150;27417;-79
2023/06/09 01:25:47;;;;;;;7.10;6.40;;;16.60;81.10;;;;;;923708;153;27527;-77
2023/06/09 01:28:18;;;;;;;7.57;6.70;;;16.50;81.30;;;;;;923489;153;27453;-73
2023/06/09 01:30:43;;;;;;;7.07;6.37;;;16.50;81.40;;;;;;922732;153;27487;-73
2023/06/09 01:33:10;;;;;;;6.73;6.13;;;16.50;81.70;;;;;;922397;153;27475;-73
2023/06/09 01:35:36;;;;;;;7.83;7.13;;;16.50;82.10;;;;;;939055;150;27319;-73
2023/06/09 01:38:03;;;;;;;6.87;6.27;;;16.40;82.20;;;;;;940505;150;27381;-73
2023/06/09 01:40:29;;;;;;;7.57;6.90;;;16.40;82.40;;;;;;914201;153;27386;-73
2023/06/09 01:42:56;;;;;;;7.20;6.50;;;16.40;82.70;;;;;;939451;150;27323;-73
2023/06/09 01:45:23;;;;;;;8.10;7.20;;;16.40;83.00;;;;;;938602;150;27445;-73
2023/06/09 01:47:49;;;;;;;7.50;6.90;;;16.40;83.20;;;;;;940362;150;27626;-73
2023/06/09 01:50:28;;;;;;;7.33;6.72;;;16.30;83.50;;;;;;942029;150;27445;-73
2023/06/09 01:53:04;;;;;;;7.03;6.43;;;16.30;83.70;;;;;;942003;150;27353;-73
2023/06/09 01:55:30;;;;;;;7.45;6.78;;;16.30;83.90;;;;;;892198;158;27451;-73
2023/06/09 01:57:57;;;;;;;7.47;6.78;;;16.30;84.00;;;;;;923503;153;27394;-73
2023/06/09 02:00:24;;;;;;;8.37;7.63;;;16.30;84.40;;;;;;938845;150;27389;-73
2023/06/09 02:02:50;;;;;;;7.30;6.70;;;16.30;84.80;;;;;;940983;150;27893;-73
2023/06/09 02:05:17;;;;;;;7.93;7.23;;;16.30;85.00;;;;;;921865;153;27368;-73
2023/06/09 02:07:44;;;;;;;7.63;6.93;;;16.30;85.10;;;;;;941310;150;27360;-73
2023/06/09 02:10:10;;;;;;;6.97;6.37;;;16.20;85.40;;;;;;940442;150;27412;-73
2023/06/09 02:12:39;;;;;;;6.87;6.27;;;16.20;85.60;;;;;;924351;153;27393;-74
2023/06/09 02:15:03;;;;;;;6.97;6.37;;;16.20;86.00;;;;;;940748;150;27430;-75
2023/06/09 02:17:29;;;;;;;6.73;6.20;;;16.20;86.20;;;;;;920260;153;27533;-75
2023/06/09 02:19:56;;;;;;;7.13;6.43;;;16.20;86.20;;;;;;936554;151;27318;-75
2023/06/09 02:22:23;;;;;;;6.13;5.63;;;16.20;86.30;;;;;;938353;151;27389;-75
2023/06/09 02:24:49;;;;;;;10.10;7.10;;;16.20;86.60;;;;;;934278;151;27456;-75
2023/06/09 02:27:16;;;;;;;6.40;5.90;;;16.20;86.80;;;;;;919630;153;27419;-75
2023/06/09 02:29:42;;;;;;;6.77;6.17;;;16.20;87.00;;;;;;914413;154;27421;-75
2023/06/09 02:32:09;;;;;;;6.20;5.70;;;16.20;87.30;;;;;;909270;154;27386;-75
2023/06/09 02:34:37;;;;;;;6.27;5.77;;;16.20;87.60;;;;;;915730;153;27398;-75
2023/06/09 02:37:02;;;;;;;6.07;5.63;;;16.20;87.90;;;;;;922060;153;27343;-75
2023/06/09 02:39:29;;;;;;;6.37;5.87;;;16.20;88.00;;;;;;934945;151;27278;-73
2023/06/09 02:41:55;;;;;;;6.60;6.00;;;16.20;88.10;;;;;;937993;150;27397;-73
2023/06/09 02:44:22;;;;;;;6.77;6.27;;;16.20;88.50;;;;;;938164;151;27348;-73
2023/06/09 02:46:49;;;;;;;7.40;6.57;;;16.10;88.70;;;;;;922644;153;27474;-73
2023/06/09 02:49:16;;;;;;;7.63;6.83;;;16.20;89.00;;;;;;919180;153;27442;-73
2023/06/09 02:51:42;;;;;;;6.83;6.30;;;16.10;89.20;;;;;;937844;151;27384;-73
2023/06/09 02:54:08;;;;;;;6.53;6.00;;;16.20;89.50;;;;;;906592;154;27403;-73
2023/06/09 02:56:35;;;;;;;7.15;6.47;;;16.20;89.60;;;;;;935351;151;27710;-73
2023/06/09 02:59:02;;;;;;;6.90;6.30;;;16.20;89.50;;;;;;937464;151;27363;-73
2023/06/09 03:01:34;;;;;;;6.90;6.20;;;16.20;89.50;;;;;;937184;151;27320;-73
2023/06/09 03:03:55;;;;;;;7.30;6.70;;;16.20;89.50;;;;;;937193;150;27323;-73
2023/06/09 03:06:21;;;;;;;6.63;6.10;;;16.10;89.30;;;;;;935881;150;27757;-73
2023/06/09 03:08:48;;;;;;;6.42;5.83;;;16.10;89.00;;;;;;935259;151;27460;-73
2023/06/09 03:11:14;;;;;;;6.80;6.20;;;16.10;89.00;;;;;;935300;151;27302;-73
2023/06/09 03:13:41;;;;;;;7.80;7.00;;;16.10;89.20;;;;;;921463;153;27345;-73
2023/06/09 03:16:08;;;;;;;6.43;5.93;;;16.00;89.30;;;;;;905894;154;27461;-73
2023/06/09 03:18:34;;;;;;;6.03;5.53;;;16.00;89.50;;;;;;911372;154;27444;-73
2023/06/09 03:21:04;;;;;;;6.97;6.37;;;15.90;89.60;;;;;;923387;152;27402;-73
2023/06/09 03:23:27;;;;;;;6.10;5.60;;;15.90;89.80;;;;;;923106;152;27703;-73
2023/06/09 03:25:54;;;;;;;6.60;6.10;;;15.90;90.30;;;;;;922665;152;27400;-73
2023/06/09 03:28:21;;;;;;;7.50;6.80;;;15.80;90.00;;;;;;924478;152;27452;-73
2023/06/09 03:30:47;;;;;;;6.55;6.05;;;15.80;90.60;;;;;;917194;153;27492;-73
2023/06/09 03:33:15;;;;;;;6.72;6.22;;;15.70;90.50;;;;;;915262;154;27498;-73
2023/06/09 03:35:40;;;;;;;8.10;6.43;;;15.70;90.40;;;;;;916395;153;27416;-73
2023/06/09 03:38:07;;;;;;;5.93;5.47;;;15.70;90.60;;;;;;916364;153;27323;-73
2023/06/09 03:40:36;;;;;;;6.80;6.23;;;15.70;90.80;;;;;;916894;154;27362;-73
2023/06/09 03:43:00;;;;;;;6.43;5.87;;;15.60;90.90;;;;;;917208;154;27407;-73
2023/06/09 03:45:27;;;;;;;6.73;6.03;;;15.60;91.10;;;;;;917337;153;27415;-73
2023/06/09 03:47:53;;;;;;;6.33;5.73;;;15.60;91.30;;;;;;918131;153;27376;-73
2023/06/09 03:50:20;;;;;;;8.40;7.13;;;15.60;91.50;;;;;;924552;152;27663;-73
2023/06/09 03:52:46;;;;;;;6.50;6.00;;;15.60;91.60;;;;;;891398;155;27490;-73
2023/06/09 03:55:13;;;;;;;6.80;6.25;;;15.60;91.80;;;;;;907998;155;27426;-73
2023/06/09 03:57:40;;;;;;;7.00;6.30;;;15.60;92.00;;;;;;902784;156;27721;-73
2023/06/09 04:00:06;;;;;;;6.73;6.23;;;15.60;92.20;;;;;;906409;155;27846;-73
2023/06/09 04:02:33;;;;;;;6.40;5.90;;;15.60;92.30;;;;;;922425;152;27347;-73
2023/06/09 04:05:00;;;;;;;7.17;6.23;;;15.70;92.60;;;;;;915574;154;27390;-73
2023/06/09 04:07:29;;;;;;;6.78;6.10;;;15.70;92.70;;;;;;922265;152;27389;-73
2023/06/09 04:09:53;;;;;;;6.42;5.95;;;15.70;92.90;;;;;;889935;155;27497;-73
2023/06/09 04:12:19;;;;;;;6.72;6.22;;;15.70;93.00;;;;;;891708;155;27381;-73
2023/06/09 04:14:46;;;;;;;6.83;6.23;;;15.80;93.20;;;;;;916993;154;27380;-73
2023/06/09 04:17:12;;;;;;;9.20;6.50;;;15.80;93.30;;;;;;917484;153;27492;-73
2023/06/09 04:19:39;;;;;;;6.43;5.93;;;15.90;93.40;;;;;;918495;154;27400;-73
2023/06/09 04:22:07;;;;;;;6.60;6.10;;;15.90;93.60;;;;;;915610;153;27347;-73
2023/06/09 04:24:32;;;;;;;7.03;6.42;;;16.00;93.60;;;;;;916961;153;27396;-73
2023/06/09 04:27:01;;;;;;;6.87;6.30;;;16.00;93.70;;;;;;917311;154;27403;-73
2023/06/09 04:29:26;;;;;;;6.55;5.97;;;16.10;93.80;;;;;;915018;153;27690;-73
2023/06/09 04:31:58;;;;;;;6.17;5.67;;;16.20;93.90;;;;;;916895;154;27961;-73
2023/06/09 04:34:19;;;;;;;6.65;6.15;;;16.20;94.00;;;;;;916484;154;27358;-73
2023/06/09 04:36:45;;;;;;;7.42;6.83;;;16.40;94.20;;;;;;915567;154;27344;-73
2023/06/09 04:39:12;;;;;;;7.72;6.42;;;16.40;94.30;;;;;;917769;153;27488;-73
2023/06/09 04:41:38;;;;;;;9.63;8.83;;;16.50;94.60;;;;;;923047;151;27383;-73
2023/06/09 04:44:05;;;;;;;10.15;9.15;;;16.60;94.80;;;;;;920991;152;27338;-73
2023/06/09 04:46:37;;;;;;;11.40;10.23;;;16.70;95.10;;;;;;922634;152;27287;-73
2023/06/09 04:48:59;;;;;;;9.85;8.95;;;16.90;95.30;;;;;;921975;152;27344;-73
2023/06/09 04:51:25;;;;;;;11.35;10.45;;;17.00;95.50;;;;;;921292;152;27497;-73
2023/06/09 04:53:53;;;;;;;11.33;10.32;;;17.20;95.50;;;;;;922104;152;27369;-73
2023/06/09 04:56:20;;;;;;;10.75;9.85;;;17.40;95.80;;;;;;920312;153;27308;-73
2023/06/09 04:58:45;;;;;;;7.87;7.28;;;17.60;96.80;;;;;;918859;153;27358;-73
2023/06/09 05:01:13;;;;;;;7.30;6.60;;;17.90;98.00;;;;;;920173;153;27467;-73
2023/06/09 05:03:38;;;;;;;6.28;5.78;;;18.30;98.80;;;;;;902247;155;27421;-73
2023/06/09 05:06:04;;;;;;;5.87;5.37;;;18.90;99.70;;;;;;902816;155;27401;-73
2023/06/09 05:08:31;;;;;;;7.28;6.58;;;19.50;99.90;;;;;;890816;155;27459;-73
2023/06/09 05:10:57;;;;;;;5.92;5.50;;;20.30;99.90;;;;;;891985;155;27487;-73
2023/06/09 05:13:24;;;;;;;5.08;4.65;;;21.10;99.70;;;;;;905256;155;27397;-73
2023/06/09 05:15:53;;;;;;;5.70;5.20;;;21.90;98.80;;;;;;908674;155;27431;-73
2023/06/09 05:18:19;;;;;;;5.30;4.90;;;22.70;97.60;;;;;;907157;155;27336;-73
2023/06/09 05:20:44;;;;;;;4.95;4.53;;;23.60;95.80;;;;;;925024;151;27387;-73
2023/06/09 05:23:10;;;;;;;4.70;4.30;;;24.50;93.60;;;;;;914235;154;27494;-73
2023/06/09 05:25:38;;;;;;;5.15;4.67;;;25.30;91.40;;;;;;913816;154;27384;-73
2023/06/09 05:28:04;;;;;;;5.00;4.62;;;26.10;88.20;;;;;;925036;151;27371;-73
2023/06/09 05:30:30;;;;;;;5.03;4.55;;;26.90;83.60;;;;;;917763;155;27373;-73
2023/06/09 05:32:57;;;;;;;4.58;4.20;;;27.60;79.60;;;;;;895564;155;27400;-74
2023/06/09 05:35:23;;;;;;;5.45;4.20;;;28.40;76.30;;;;;;908089;155;27413;-73
2023/06/09 05:37:50;;;;;;;3.95;3.60;;;29.00;73.80;;;;;;900326;155;27387;-74
2023/06/09 05:40:17;;;;;;;4.53;4.22;;;29.70;71.60;;;;;;901964;155;27734;-74
2023/06/09 05:42:43;;;;;;;4.20;3.90;;;30.30;69.70;;;;;;901704;155;27364;-73
2023/06/09 05:45:10;;;;;;;3.72;3.40;;;30.90;67.60;;;;;;901097;155;27519;-73
2023/06/09 05:47:36;;;;;;;3.83;3.55;;;31.50;65.90;;;;;;903083;155;27485;-74
2023/06/09 05:50:03;;;;;;;3.35;3.15;;;32.10;64.10;;;;;;903227;155;27474;-73
2023/06/09 05:52:30;;;;;;;3.35;3.15;;;32.60;62.60;;;;;;917044;154;27361;-73
2023/06/09 05:54:56;;;;;;;3.50;3.30;;;33.20;60.80;;;;;;906863;155;27371;-74
2023/06/09 05:57:25;;;;;;;3.22;3.00;;;33.80;59.30;;;;;;914850;154;26297;-74
2023/06/09 05:59:50;;;;;;;3.20;3.00;;;34.20;58.30;;;;;;913700;154;26293;-74
2023/06/09 06:02:16;;;;;;;2.72;2.52;;;34.70;57.40;;;;;;911944;154;27383;-73
2023/06/09 06:04:43;;;;;;;2.98;2.75;;;35.20;56.40;;;;;;913024;154;26266;-74
2023/06/09 06:07:09;;;;;;;3.45;2.95;;;35.60;55.30;;;;;;923961;152;27326;-74
2023/06/09 06:09:36;;;;;;;3.45;3.25;;;36.10;54.00;;;;;;893529;156;26361;-74
2023/06/09 06:12:02;;;;;;;3.00;2.80;;;36.50;53.20;;;;;;915904;154;26257;-73
2023/06/09 06:14:29;;;;;;;3.10;2.90;;;36.80;52.50;;;;;;913142;154;26280;-74
2023/06/09 06:16:55;;;;;;;3.42;3.12;;;37.20;51.60;;;;;;911111;154;26626;-74
2023/06/09 06:19:22;;;;;;;3.10;2.90;;;37.50;50.50;;;;;;924287;152;27415;-74
2023/06/09 06:21:49;;;;;;;2.80;2.60;;;37.80;50.10;;;;;;920394;152;26298;-74
2023/06/09 06:24:15;;;;;;;4.08;2.95;;;38.10;49.00;;;;;;934934;151;26247;-73
2023/06/09 06:26:42;;;;;;;2.50;2.40;;;38.30;48.20;;;;;;935715;151;26232;-73
2023/06/09 06:29:08;;;;;;;2.75;2.58;;;38.60;47.70;;;;;;935956;151;26263;-75
2023/06/09 06:31:35;;;;;;;3.05;2.83;;;38.80;47.30;;;;;;908507;154;26320;-76
2023/06/09 06:34:02;;;;;;;2.67;2.50;;;39.00;46.80;;;;;;920254;153;26273;-76
2023/06/09 06:36:28;;;;;;;3.72;2.77;;;39.20;46.10;;;;;;913954;153;26289;-76
2023/06/09 06:38:55;;;;;;;2.67;2.47;;;39.50;45.60;;;;;;914860;154;26323;-76
2023/06/09 06:41:21;;;;;;;2.58;2.37;;;39.80;45.10;;;;;;937438;151;26322;-75
2023/06/09 06:43:49;;;;;;;2.60;2.40;;;40.20;44.50;;;;;;936282;151;26428;-76
2023/06/09 06:46:15;;;;;;;2.62;2.42;;;40.50;43.80;;;;;;933635;151;26341;-76
2023/06/09 06:48:41;;;;;;;4.90;2.47;;;40.70;43.10;;;;;;935769;151;26318;-76
2023/06/09 06:51:08;;;;;;;2.60;2.50;;;40.90;43.10;;;;;;936360;151;26232;-76
2023/06/09 06:53:34;;;;;;;2.40;2.30;;;41.20;42.00;;;;;;938395;151;26282;-76
2023/06/09 06:56:01;;;;;;;2.90;2.70;;;41.40;41.60;;;;;;936098;151;26404;-76
2023/06/09 06:58:28;;;;;;;2.42;2.33;;;41.70;41.40;;;;;;917988;153;26299;-76
2023/06/09 07:00:55;;;;;;;2.55;2.35;;;42.00;40.80;;;;;;938302;151;26288;-76
2023/06/09 07:03:23;;;;;;;2.50;2.30;;;42.30;40.30;;;;;;932610;150;26231;-76
2023/06/09 07:05:47;;;;;;;2.40;2.20;;;42.50;39.70;;;;;;905892;154;26422;-76
2023/06/09 07:08:14;;;;;;;2.55;2.37;;;42.80;39.20;;;;;;907474;154;26358;-76
2023/06/09 07:10:40;;;;;;;2.20;2.10;;;43.20;38.70;;;;;;905512;154;26285;-76
2023/06/09 07:13:07;;;;;;;2.35;2.15;;;43.50;37.90;;;;;;908217;154;26285;-76
2023/06/09 07:15:36;;;;;;;2.60;2.40;;;43.80;37.40;;;;;;904749;154;26340;-76
2023/06/09 07:18:00;;;;;;;2.30;2.10;;;44.10;36.80;;;;;;906174;154;26450;-76
2023/06/09 07:20:27;;;;;;;2.87;2.50;;;44.30;36.20;;;;;;905030;154;26284;-76
2023/06/09 07:22:53;;;;;;;2.30;2.10;;;44.50;35.70;;;;;;892399;155;26225;-76
2023/06/09 07:25:20;;;;;;;2.33;2.22;;;44.60;35.30;;;;;;892099;155;26282;-76
2023/06/09 07:27:47;;;;;;;2.60;2.40;;;44.80;34.90;;;;;;891379;155;26816;-76
2023/06/09 07:30:13;;;;;;;2.22;2.02;;;44.90;34.80;;;;;;891304;155;26326;-76
2023/06/09 07:32:40;;;;;;;2.12;2.02;;;44.90;34.50;;;;;;890757;155;26284;-76
2023/06/09 07:35:06;;;;;;;2.52;2.33;;;45.10;34.30;;;;;;890665;155;26397;-74
2023/06/09 07:37:36;;;;;;;2.25;2.15;;;45.20;33.70;;;;;;916474;154;26324;-76
2023/06/09 07:39:59;;;;;;;2.20;2.10;;;45.20;33.50;;;;;;916600;153;26401;-77
2023/06/09 07:42:26;;;;;;;2.65;2.40;;;45.30;33.20;;;;;;916604;153;26268;-77
2023/06/09 07:44:53;;;;;;;2.10;2.00;;;45.40;32.60;;;;;;918349;154;26282;-77
2023/06/09 07:47:19;;;;;;;2.20;2.10;;;45.40;32.70;;;;;;914929;154;26260;-77
2023/06/09 07:49:46;;;;;;;2.75;2.55;;;45.40;32.40;;;;;;918562;154;26416;-76
2023/06/09 07:52:12;;;;;;;2.70;2.50;;;45.50;31.90;;;;;;917461;153;26295;-76
2023/06/09 07:54:39;;;;;;;2.10;2.00;;;45.50;31.50;;;;;;916982;154;26571;-77
2023/06/09 07:57:06;;;;;;;2.15;2.02;;;45.60;31.20;;;;;;916908;154;26859;-77
2023/06/09 07:59:32;;;;;;;2.58;1.92;;;45.60;30.80;;;;;;919670;154;26333;-77
2023/06/09 08:01:59;;;;;;;1.90;1.80;;;45.60;31.00;;;;;;918485;154;26296;-77
2023/06/09 08:04:26;;;;;;;2.83;1.95;;;45.60;30.80;;;;;;918004;154;26265;-76
2023/06/09 08:06:52;;;;;;;3.40;2.72;;;45.60;30.40;;;;;;916956;153;26277;-77
2023/06/09 08:09:19;;;;;;;2.00;1.85;;;45.60;30.00;;;;;;916236;153;26248;-77
2023/06/09 08:11:45;;;;;;;2.08;1.70;;;45.60;29.60;;;;;;916553;154;26378;-77
2023/06/09 08:14:13;;;;;;;1.90;1.80;;;45.60;29.20;;;;;;923030;152;26292;-77
2023/06/09 08:16:38;;;;;;;1.82;1.72;;;45.40;29.00;;;;;;890155;155;26367;-76
2023/06/09 08:19:05;;;;;;;2.33;1.80;;;45.20;28.90;;;;;;906765;155;26238;-76
2023/06/09 08:21:32;;;;;;;1.87;1.77;;;45.00;28.80;;;;;;917069;153;26339;-76
2023/06/09 08:23:58;;;;;;;2.00;1.90;;;44.70;28.70;;;;;;914202;153;26336;-76
2023/06/09 08:26:25;;;;;;;1.85;1.70;;;44.40;28.80;;;;;;917784;154;26245;-76
2023/06/09 08:28:51;;;;;;;1.87;1.77;;;44.20;29.00;;;;;;913200;154;26301;-78
2023/06/09 08:31:18;;;;;;;2.10;2.00;;;44.00;29.10;;;;;;914582;154;26261;-79
2023/06/09 08:33:44;;;;;;;2.22;1.80;;;44.00;29.20;;;;;;917299;154;26332;-79
2023/06/09 08:36:12;;;;;;;2.00;1.70;;;44.00;29.20;;;;;;916350;154;26328;-79
2023/06/09 08:38:38;;;;;;;2.02;1.82;;;44.10;29.20;;;;;;916819;154;26355;-79
2023/06/09 08:41:07;;;;;;;1.92;1.82;;;44.30;29.20;;;;;;917430;154;26277;-79
2023/06/09 08:43:33;;;;;;;2.08;1.87;;;44.40;28.90;;;;;;915686;154;26469;-78
2023/06/09 08:46:01;;;;;;;1.90;1.80;;;44.50;28.80;;;;;;917986;153;26316;-79
2023/06/09 08:48:27;;;;;;;2.35;1.98;;;44.70;28.80;;;;;;906053;155;26368;-79
2023/06/09 08:50:53;;;;;;;2.00;1.90;;;44.80;28.50;;;;;;904834;156;26291;-79
2023/06/09 08:53:20;;;;;;;1.80;1.70;;;45.00;28.50;;;;;;923854;152;26257;-78
2023/06/09 08:55:47;;;;;;;2.83;1.85;;;45.10;28.20;;;;;;916112;154;26344;-79
2023/06/09 08:58:13;;;;;;;1.70;1.60;;;45.20;28.20;;;;;;918382;154;26277;-79
2023/06/09 09:00:40;;;;;;;2.50;2.00;;;45.30;28.00;;;;;;906666;155;26257;-79
2023/06/09 09:03:06;;;;;;;1.90;1.80;;;45.30;27.80;;;;;;904112;153;26262;-79
2023/06/09 09:05:33;;;;;;;1.98;1.85;;;45.40;27.80;;;;;;924476;152;26297;-79
2023/06/09 09:07:59;;;;;;;2.02;1.80;;;45.40;27.90;;;;;;919091;154;26816;-79
2023/06/09 09:10:27;;;;;;;3.75;2.40;;;45.40;28.10;;;;;;918071;154;26218;-79
2023/06/09 09:12:55;;;;;;;2.62;2.42;;;45.40;27.50;;;;;;916328;154;26218;-79
2023/06/09 09:15:19;;;;;;;2.00;1.90;;;45.40;27.60;;;;;;915206;153;26367;-79
2023/06/09 09:17:46;;;;;;;2.15;1.80;;;45.40;27.50;;;;;;917572;153;26304;-79
2023/06/09 09:20:14;;;;;;;2.25;2.05;;;45.50;27.50;;;;;;916512;154;26249;-79
2023/06/09 09:22:48;;;;;;;1.77;1.67;;;45.50;27.30;;;;;;892928;154;26343;-79
2023/06/09 09:25:25;;;;;;;2.45;2.25;;;45.50;27.30;;;;;;881230;157;26351;-79
2023/06/09 09:28:09;;;;;;;2.00;1.90;;;45.60;27.30;;;;;;882662;158;26327;-79
2023/06/09 09:30:41;;;;;;;2.00;1.90;;;45.60;27.30;;;;;;915119;151;26276;-79
2023/06/09 09:33:08;;;;;;;2.00;1.90;;;45.50;27.30;;;;;;916996;151;26302;-79
2023/06/09 09:35:34;;;;;;;2.55;1.85;;;45.50;27.20;;;;;;891382;157;26316;-79
2023/06/09 09:38:01;;;;;;;1.82;1.72;;;45.40;27.20;;;;;;915895;151;26226;-79
2023/06/09 09:40:27;;;;;;;1.95;1.72;;;45.40;27.20;;;;;;916509;151;26259;-79
2023/06/09 09:42:54;;;;;;;2.00;1.80;;;45.50;26.90;;;;;;916325;151;26308;-79
2023/06/09 09:45:26;;;;;;;2.80;2.12;;;45.50;26.80;;;;;;915582;151;26285;-80
2023/06/09 09:47:53;;;;;;;2.55;2.15;;;45.40;26.80;;;;;;915058;151;26344;-79
2023/06/09 09:50:23;;;;;;;1.95;1.85;;;45.40;26.60;;;;;;914184;151;26249;-80
2023/06/09 09:52:49;;;;;;;3.58;2.58;;;45.30;26.50;;;;;;915404;151;26292;-79
2023/06/09 09:55:15;;;;;;;2.02;1.92;;;45.10;26.50;;;;;;916818;151;26346;-79
2023/06/09 09:57:42;;;;;;;1.87;1.75;;;44.90;26.50;;;;;;915735;151;26255;-79
2023/06/09 10:00:12;;;;;;;2.08;1.90;;;44.60;26.50;;;;;;915982;151;26353;-79
2023/06/09 10:02:38;;;;;;;2.00;1.90;;;44.20;26.40;;;;;;915671;151;26292;-79
2023/06/09 10:05:05;;;;;;;2.47;2.10;;;43.80;26.50;;;;;;915805;151;26266;-79
2023/06/09 10:07:31;;;;;;;2.15;1.95;;;43.20;26.40;;;;;;892753;157;26279;-80
2023/06/09 10:09:58;;;;;;;3.10;2.50;;;42.70;26.60;;;;;;915238;151;26263;-79
2023/06/09 10:12:24;;;;;;;2.35;2.20;;;42.30;26.70;;;;;;917182;151;26293;-79
2023/06/09 10:14:51;;;;;;;2.52;2.33;;;41.80;26.90;;;;;;918277;151;26288;-79
2023/06/09 10:17:18;;;;;;;3.37;2.27;;;41.30;27.10;;;;;;916908;151;26244;-79
2023/06/09 10:19:44;;;;;;;2.50;2.30;;;40.90;27.20;;;;;;917009;151;26229;-79
2023/06/09 10:22:11;;;;;;;3.87;2.37;;;40.40;27.40;;;;;;890232;157;26474;-79
2023/06/09 10:24:37;;;;;;;2.60;2.40;;;40.00;27.50;;;;;;931809;151;26331;-79
2023/06/09 10:27:04;;;;;;;2.50;2.30;;;39.60;27.70;;;;;;920375;153;27368;-79
2023/06/09 10:29:31;;;;;;;2.70;2.50;;;39.20;27.90;;;;;;935461;148;26295;-79
2023/06/09 10:31:57;;;;;;;3.60;2.83;;;38.80;28.10;;;;;;935787;151;26192;-79
2023/06/09 10:34:24;;;;;;;2.60;2.40;;;38.40;28.20;;;;;;934265;151;27393;-79
2023/06/09 10:36:56;;;;;;;2.67;2.47;;;38.00;28.50;;;;;;906224;154;26437;-79
2023/06/09 10:39:22;;;;;;;2.50;2.30;;;37.70;28.60;;;;;;912659;153;27405;-79
2023/06/09 10:42:07;;;;;;;2.17;2.08;;;37.40;28.80;;;;;;934470;151;27379;-79
2023/06/09 10:44:46;;;;;;;2.35;2.22;;;37.10;29.00;;;;;;932790;151;27381;-79
2023/06/09 10:47:12;;;;;;;2.40;2.20;;;36.90;29.20;;;;;;933286;151;27359;-78
2023/06/09 10:49:39;;;;;;;2.50;2.40;;;36.60;28.90;;;;;;934099;151;27453;-78
2023/06/09 10:52:36;;;;;;;2.65;2.45;;;36.30;28.80;;;;;;935936;151;27431;-78
2023/06/09 10:55:15;;;;;;;2.87;2.67;;;36.00;28.90;;;;;;937729;150;27335;-79
2023/06/09 10:57:41;;;;;;;2.80;2.60;;;35.70;29.10;;;;;;935051;151;27536;-78
2023/06/09 11:00:15;;;;;;;5.83;2.22;;;35.40;29.30;;;;;;936990;151;27383;-78
2023/06/09 11:02:37;;;;;;;2.60;2.40;;;35.20;29.60;;;;;;918718;153;27389;-79
2023/06/09 11:05:03;;;;;;;2.42;2.33;;;34.90;29.70;;;;;;918908;154;27415;-79
2023/06/09 11:07:32;;;;;;;3.90;2.40;;;34.60;30.00;;;;;;917098;154;27427;-78
2023/06/09 11:09:57;;;;;;;2.33;2.20;;;34.50;30.40;;;;;;917303;154;27368;-78
2023/06/09 11:12:29;;;;;;;2.55;2.35;;;34.40;30.80;;;;;;933443;151;27394;-78
2023/06/09 11:15:02;;;;;;;2.50;2.40;;;34.30;31.00;;;;;;934208;151;27348;-78
2023/06/09 11:17:36;;;;;;;2.35;2.20;;;34.30;31.10;;;;;;919125;153;27430;-78
2023/06/09 11:20:09;;;;;;;3.72;2.33;;;34.20;30.80;;;;;;935331;151;27335;-78
2023/06/09 11:22:35;;;;;;;2.62;2.42;;;34.20;30.40;;;;;;920480;153;27393;-78
2023/06/09 11:25:02;;;;;;;2.15;2.05;;;34.10;30.00;;;;;;931436;150;27406;-78
2023/06/09 11:27:29;;;;;;;2.12;2.02;;;34.10;30.00;;;;;;933165;150;27379;-78
2023/06/09 11:30:07;;;;;;;2.70;2.50;;;34.00;30.10;;;;;;932432;150;27492;-78
2023/06/09 11:32:58;;;;;;;2.25;2.15;;;33.90;30.00;;;;;;914504;153;27485;-78
2023/06/09 11:35:30;;;;;;;2.50;2.40;;;33.80;30.10;;;;;;924598;151;27413;-78
2023/06/09 11:38:00;;;;;;;2.27;2.17;;;33.70;30.40;;;;;;904811;154;27411;-78
2023/06/09 11:40:26;;;;;;;2.60;2.37;;;33.60;30.30;;;;;;933444;151;27329;-78
2023/06/09 11:42:53;;;;;;;3.05;2.20;;;33.60;30.30;;;;;;936645;151;27412;-78
2023/06/09 11:45:19;;;;;;;2.60;2.30;;;33.50;30.20;;;;;;932378;150;27381;-77
2023/06/09 11:47:46;;;;;;;2.40;2.25;;;33.40;30.20;;;;;;933295;150;27270;-77
2023/06/09 11:50:12;;;;;;;2.52;2.40;;;33.30;30.20;;;;;;936638;151;27675;-77
2023/06/09 11:52:39;;;;;;;3.10;2.30;;;33.10;30.30;;;;;;937057;151;27354;-77
2023/06/09 11:55:06;;;;;;;2.50;2.30;;;32.90;30.40;;;;;;937238;151;27429;-77
2023/06/09 11:57:32;;;;;;;2.62;2.45;;;32.80;30.80;;;;;;935763;151;27405;-77
2023/06/09 11:59:59;;;;;;;3.98;2.37;;;32.70;31.30;;;;;;934698;151;27426;-77
2023/06/09 12:02:27;;;;;;;2.75;2.55;;;32.50;31.60;;;;;;936442;151;27286;-77
2023/06/09 12:04:52;;;;;;;2.87;2.67;;;32.40;32.00;;;;;;934826;151;27392;-77
2023/06/09 12:07:19;;;;;;;2.98;2.50;;;32.30;32.10;;;;;;919599;153;27408;-77
2023/06/09 12:09:45;;;;;;;2.80;2.60;;;32.30;32.50;;;;;;905375;154;28000;-77
2023/06/09 12:12:12;;;;;;;3.05;2.85;;;32.20;32.80;;;;;;934958;151;27323;-78
2023/06/09 12:14:38;;;;;;;2.90;2.70;;;32.10;32.90;;;;;;921010;153;27337;-77
2023/06/09 12:17:06;;;;;;;3.25;3.05;;;32.10;32.80;;;;;;921566;153;27380;-77
2023/06/09 12:19:32;;;;;;;3.60;2.75;;;32.00;32.80;;;;;;905076;154;27429;-77
2023/06/09 12:21:58;;;;;;;5.00;2.90;;;31.90;33.00;;;;;;907528;154;27410;-77
2023/06/09 12:24:25;;;;;;;2.87;2.67;;;31.90;33.10;;;;;;901021;154;27435;-77
2023/06/09 12:26:51;;;;;;;3.25;2.98;;;31.80;33.30;;;;;;892886;155;27445;-77
2023/06/09 12:29:18;;;;;;;3.47;2.40;;;31.80;33.20;;;;;;893071;155;27429;-77
2023/06/09 12:31:45;;;;;;;3.95;2.92;;;31.70;33.20;;;;;;889061;155;27541;-77
2023/06/09 12:34:20;;;;;;;2.95;2.72;;;31.70;33.50;;;;;;890939;155;27366;-78
2023/06/09 12:36:48;;;;;;;2.87;2.67;;;31.70;33.90;;;;;;901422;156;27391;-78
2023/06/09 12:39:16;;;;;;;3.10;2.90;;;31.70;33.70;;;;;;923457;152;27426;-77
2023/06/09 12:41:42;;;;;;;3.85;2.70;;;31.70;33.70;;;;;;924976;152;27445;-77
2023/06/09 12:44:09;;;;;;;3.10;2.90;;;31.70;33.80;;;;;;919124;154;27453;-77
2023/06/09 12:46:36;;;;;;;4.78;2.95;;;31.70;33.80;;;;;;917558;154;27322;-78